ENSH

Svolvær Airport

Airport
ICAO code
ENSH
IATA Code
SVJ
Summary
ICAO Region
EUR
ICAO Territory
Location

Svolvær, Vågan, Nordland

Serving
Svolvær
Elevation
30 ft
Coordinates
68° 14' 36" N , 14° 40' 9" E
KCC
Airport CFIT
Altimeter Temperature Error Correction
Airport WX
Low Level Turbulence
Metar
Observation
ENSH 272020Z 28010KT 230V300 9999 RA FEW006 SCT017 BKN028 05/02 Q0995 RMK WIND 0150FT 28015KT
Station
Svolvaer / Helle
Date/Time
2023-01-27 21:20:00
Wind direction
280°
Wind speed
10 kts
Lowest cloud amount
few clouds
Temperature
5°C
Dew point
2°C
Humidity
80%
QNH
995 hPa
Weather condition
rain

Description

Regional airport serving the town of Svolvær in northern Norway.

Climatology

Subpolar Oceanic climate (Köppen climate classification Cfc) - uniform precipitation distribution, temperatures are moderated by the proximity of the ocean and warm currents - cool summers and comparatively mild winters.

Runways

Designator Length Width Surface Rops
1/19 857 0 UNK No/No

Airport map

Aerial View

SKYbrary Partners:

Safety knowledge contributed by: